createdAt,value
2023-03-26T00:03:17.754Z,83.40
2023-03-26T00:07:17.731Z,78.18
2023-03-26T00:11:17.701Z,91.33
2023-03-26T00:15:17.660Z,87.99
2023-03-26T00:19:17.626Z,86.36
2023-03-26T00:23:17.607Z,93.81
2023-03-26T00:27:17.545Z,96.66
2023-03-26T00:31:17.569Z,96.40
2023-03-26T00:35:17.475Z,98.36
2023-03-26T00:39:17.452Z,90.28
2023-03-26T00:43:17.400Z,93.79
2023-03-26T00:47:17.373Z,93.34
2023-03-26T00:51:17.625Z,89.52
2023-03-26T00:55:17.608Z,83.03
2023-03-26T00:59:17.513Z,97.97
2023-03-26T01:03:26.694Z,94.59
2023-03-26T01:07:18.478Z,90.91
2023-03-26T01:11:17.434Z,92.16
2023-03-26T01:15:17.548Z,91.69
2023-03-26T01:19:17.508Z,97.95
2023-03-26T01:23:17.529Z,96.43
2023-03-26T01:27:17.429Z,97.28
2023-03-26T01:31:17.390Z,101.13
2023-03-26T01:35:17.463Z,109.71
2023-03-26T01:39:17.332Z,103.27
2023-03-26T01:43:17.294Z,106.45
2023-03-26T01:47:17.249Z,108.77
2023-03-26T01:51:17.238Z,105.49
2023-03-26T01:55:17.182Z,107.97
2023-03-26T01:59:17.140Z,108.02
2023-03-26T02:03:17.493Z,107.13
2023-03-26T02:07:17.549Z,100.69
2023-03-26T02:11:17.720Z,102.96
2023-03-26T02:15:17.902Z,104.24
2023-03-26T02:19:18.047Z,100.32
2023-03-26T02:23:18.016Z,100.17
2023-03-26T02:27:17.978Z,99.80
2023-03-26T02:31:17.956Z,104.08
2023-03-26T02:35:17.962Z,95.82
2023-03-26T02:39:17.891Z,98.08
2023-03-26T02:43:17.823Z,99.69
2023-03-26T02:47:17.783Z,100.08
2023-03-26T02:51:17.743Z,95.85
2023-03-26T02:55:17.741Z,100.87
2023-03-26T02:59:17.669Z,90.85
2023-03-26T03:03:17.672Z,95.39
2023-03-26T03:07:17.695Z,96.70
2023-03-26T03:11:17.876Z,102.01
2023-03-26T03:15:17.999Z,94.87
2023-03-26T03:19:18.186Z,96.94
2023-03-26T03:23:18.406Z,100.12
2023-03-26T03:27:18.540Z,99.17
2023-03-26T03:31:18.779Z,100.56
2023-03-26T03:35:18.876Z,100.72
2023-03-26T03:39:19.021Z,100.22
2023-03-26T03:43:19.187Z,102.10
2023-03-26T03:47:19.380Z,97.17
2023-03-26T03:51:19.577Z,100.87
2023-03-26T03:55:19.770Z,101.81
2023-03-26T03:59:19.889Z,100.57
2023-03-26T04:03:20.211Z,103.80
2023-03-26T04:07:21.034Z,104.97
2023-03-26T04:11:19.981Z,102.82
2023-03-26T04:15:20.142Z,102.51
2023-03-26T04:19:20.385Z,105.66
2023-03-26T04:23:20.506Z,101.76
2023-03-26T04:27:20.668Z,103.17
2023-03-26T04:31:20.812Z,108.43
2023-03-26T04:35:20.905Z,105.34
2023-03-26T04:39:21.086Z,101.95
2023-03-26T04:43:21.244Z,107.64
2023-03-26T04:47:21.489Z,109.33
2023-03-26T04:51:21.619Z,101.33
2023-03-26T04:55:21.815Z,105.79
2023-03-26T04:59:21.915Z,105.13
2023-03-26T05:03:22.076Z,107.28
2023-03-26T05:07:22.237Z,104.14
2023-03-26T05:11:22.394Z,104.30
2023-03-26T05:15:22.525Z,102.93
2023-03-26T05:19:22.598Z,101.52
2023-03-26T05:23:22.657Z,102.67
2023-03-26T05:27:22.708Z,102.64
2023-03-26T05:31:22.835Z,93.99
2023-03-26T05:35:23.012Z,100.01
2023-03-26T05:39:23.185Z,103.01
2023-03-26T05:43:23.305Z,106.41
2023-03-26T05:47:23.511Z,100.96
2023-03-26T05:51:23.683Z,100.71
2023-03-26T05:55:23.927Z,96.27
2023-03-26T05:59:24.100Z,100.33
2023-03-26T06:03:24.363Z,98.45
2023-03-26T06:07:24.418Z,100.57
2023-03-26T06:11:24.586Z,100.02
2023-03-26T06:15:24.814Z,97.90
2023-03-26T06:19:24.989Z,101.09
2023-03-26T06:23:24.956Z,101.53
2023-03-26T06:27:24.899Z,100.61
2023-03-26T06:31:24.931Z,102.52
2023-03-26T06:35:24.898Z,107.34
2023-03-26T06:39:24.806Z,105.54
2023-03-26T06:43:24.760Z,103.07
2023-03-26T06:47:24.790Z,104.83
2023-03-26T06:51:24.704Z,106.86
2023-03-26T06:55:24.670Z,103.48
2023-03-26T06:59:24.633Z,112.83
2023-03-26T07:03:24.801Z,108.61
2023-03-26T07:07:24.782Z,112.66
2023-03-26T07:11:24.741Z,110.32
2023-03-26T07:15:24.742Z,134.05
2023-03-26T07:19:24.657Z,130.32
2023-03-26T07:23:24.616Z,122.56
2023-03-26T07:27:24.593Z,120.52
2023-03-26T07:31:24.642Z,130.33
2023-03-26T07:35:24.556Z,128.83
2023-03-26T07:39:25.703Z,128.56
2023-03-26T07:43:24.451Z,133.42
2023-03-26T07:47:24.599Z,133.00
2023-03-26T07:51:24.772Z,138.36
2023-03-26T07:55:24.982Z,132.21
2023-03-26T07:59:25.161Z,134.32
2023-03-26T08:03:25.408Z,133.09
2023-03-26T08:07:25.503Z,131.02
2023-03-26T08:11:25.686Z,124.17
2023-03-26T08:15:25.942Z,124.56
2023-03-26T08:19:26.012Z,124.14
2023-03-26T08:23:26.195Z,117.35
2023-03-26T08:27:26.346Z,114.44
2023-03-26T08:31:26.519Z,101.51
2023-03-26T08:35:26.665Z,96.24
2023-03-26T08:39:26.811Z,95.22
2023-03-26T08:43:26.964Z,85.07
2023-03-26T08:47:27.170Z,85.54
2023-03-26T08:51:27.330Z,83.40
2023-03-26T08:55:27.526Z,94.24
2023-03-26T08:59:27.726Z,82.91
2023-03-26T09:03:27.919Z,87.61
2023-03-26T09:07:28.110Z,91.40
2023-03-26T09:11:28.293Z,102.52
2023-03-26T09:15:28.520Z,99.98
2023-03-26T09:19:28.703Z,100.24
2023-03-26T09:23:28.871Z,110.02
2023-03-26T09:27:29.048Z,101.86
2023-03-26T09:31:29.199Z,107.96
2023-03-26T09:35:29.354Z,104.39
2023-03-26T09:39:29.481Z,107.05
2023-03-26T09:43:29.593Z,100.72
2023-03-26T09:47:29.713Z,98.08
2023-03-26T09:51:29.786Z,101.65
2023-03-26T09:55:29.887Z,80.40
2023-03-26T09:59:30.011Z,98.67
2023-03-26T10:03:30.103Z,86.79
2023-03-26T10:07:30.172Z,88.04
2023-03-26T10:11:30.271Z,95.14
2023-03-26T10:15:30.374Z,91.45
2023-03-26T10:19:30.448Z,94.44
2023-03-26T10:23:30.551Z,97.90
2023-03-26T10:27:30.648Z,92.97
2023-03-26T10:31:30.760Z,96.47
2023-03-26T10:35:30.927Z,103.06
2023-03-26T10:39:36.961Z,112.12
2023-03-26T10:43:31.906Z,108.10
2023-03-26T10:47:30.903Z,105.38
2023-03-26T10:51:30.817Z,104.26
2023-03-26T10:55:30.782Z,109.33
2023-03-26T10:59:30.749Z,94.27
2023-03-26T11:03:30.840Z,97.85
2023-03-26T11:07:30.918Z,102.50
2023-03-26T11:11:31.012Z,106.26
2023-03-26T11:15:31.146Z,94.69
2023-03-26T11:19:31.246Z,99.01
2023-03-26T11:23:31.259Z,97.07
2023-03-26T11:27:31.360Z,101.42
2023-03-26T11:31:31.540Z,98.01
2023-03-26T11:35:40.525Z,102.95
2023-03-26T11:39:32.502Z,102.09
2023-03-26T11:43:31.468Z,100.70
2023-03-26T11:47:31.470Z,103.21
2023-03-26T11:51:31.441Z,99.02
2023-03-26T11:55:31.348Z,100.57
2023-03-26T11:59:32.762Z,98.67
2023-03-26T12:03:31.393Z,97.89
2023-03-26T12:07:31.353Z,101.04
2023-03-26T12:11:33.161Z,101.94
2023-03-26T12:15:31.281Z,103.58
2023-03-26T12:19:31.248Z,108.57
2023-03-26T12:23:31.207Z,95.92
2023-03-26T12:27:31.160Z,100.30
2023-03-26T12:31:31.150Z,104.06
2023-03-26T12:35:31.144Z,94.73
2023-03-26T12:40:06.717Z,93.08
2023-03-26T12:44:46.408Z,94.79
2023-03-26T12:47:56.356Z,84.87
2023-03-26T12:51:31.933Z,89.34
2023-03-26T12:55:30.900Z,65.45
2023-03-26T12:59:30.881Z,55.69
2023-03-26T13:03:30.867Z,58.46
2023-03-26T13:07:30.800Z,63.04
2023-03-26T13:11:30.773Z,64.26
2023-03-26T13:15:30.733Z,48.28
2023-03-26T13:19:30.682Z,36.55
2023-03-26T13:23:30.651Z,43.46
2023-03-26T13:27:30.608Z,41.49
2023-03-26T13:31:30.623Z,40.24
2023-03-26T13:35:30.731Z,37.48
2023-03-26T13:39:30.808Z,33.07
2023-03-26T13:43:30.996Z,29.47
2023-03-26T13:47:31.090Z,32.62
2023-03-26T13:51:31.259Z,34.28
2023-03-26T13:55:31.432Z,35.20
2023-03-26T13:59:31.586Z,25.64
2023-03-26T14:03:31.798Z,41.92
2023-03-26T14:07:31.911Z,38.03
2023-03-26T14:11:32.084Z,36.29
2023-03-26T14:15:32.283Z,50.49
2023-03-26T14:19:32.442Z,38.34
2023-03-26T14:23:32.612Z,48.27
2023-03-26T14:27:32.770Z,36.73
2023-03-26T14:31:32.995Z,41.34
2023-03-26T14:35:33.225Z,38.48
2023-03-26T14:39:33.341Z,35.62
2023-03-26T14:43:33.536Z,36.04
2023-03-26T14:47:33.841Z,38.08
2023-03-26T14:51:33.918Z,36.90
2023-03-26T14:55:34.111Z,44.28
2023-03-26T14:59:34.282Z,45.55
2023-03-26T15:03:34.510Z,42.31
2023-03-26T15:07:34.656Z,35.60
2023-03-26T15:11:34.862Z,37.89
2023-03-26T15:15:35.066Z,47.07
2023-03-26T15:19:35.267Z,31.81
2023-03-26T15:23:35.460Z,37.43
2023-03-26T15:27:35.668Z,34.60
2023-03-26T15:31:35.902Z,38.45
2023-03-26T15:35:36.081Z,41.91
2023-03-26T15:39:36.269Z,27.42
2023-03-26T15:43:36.460Z,38.87
2023-03-26T15:47:36.700Z,46.08
2023-03-26T15:51:47.382Z,37.20
2023-03-26T15:55:37.868Z,44.30
2023-03-26T15:59:36.846Z,42.56
2023-03-26T16:03:36.908Z,40.50
2023-03-26T16:07:36.862Z,44.71
2023-03-26T16:11:36.842Z,52.77
2023-03-26T16:15:36.830Z,56.10
2023-03-26T16:19:36.749Z,55.75
2023-03-26T16:23:47.604Z,62.84
2023-03-26T16:27:37.678Z,59.85
2023-03-26T16:31:38.670Z,61.08
2023-03-26T16:35:36.624Z,71.67
2023-03-26T16:39:36.567Z,73.76
2023-03-26T16:43:36.533Z,78.27
2023-03-26T16:47:36.524Z,70.23
2023-03-26T16:51:36.464Z,77.21
2023-03-26T16:55:36.416Z,71.96
2023-03-26T16:59:36.391Z,72.77
2023-03-26T17:03:36.471Z,72.02
2023-03-26T17:07:36.308Z,69.89
2023-03-26T17:11:36.281Z,72.95
2023-03-26T17:15:36.461Z,73.80
2023-03-26T17:19:36.402Z,82.65
2023-03-26T17:23:38.355Z,77.91
2023-03-26T17:27:36.344Z,78.42
2023-03-26T17:31:36.390Z,80.80
2023-03-26T17:35:36.315Z,88.83
2023-03-26T17:39:36.230Z,86.81
2023-03-26T17:43:36.194Z,87.98
2023-03-26T17:47:36.211Z,93.55
2023-03-26T17:51:36.169Z,97.04
2023-03-26T17:55:36.084Z,99.55
2023-03-26T17:59:38.813Z,95.46
2023-03-26T18:03:36.160Z,98.04
2023-03-26T18:07:36.114Z,99.06
2023-03-26T18:11:36.076Z,95.64
2023-03-26T18:15:36.054Z,95.72
2023-03-26T18:19:35.999Z,99.76
2023-03-26T18:23:35.988Z,94.57
2023-03-26T18:27:35.927Z,86.15
2023-03-26T18:31:35.910Z,88.02
2023-03-26T18:35:36.026Z,85.59
2023-03-26T18:39:35.959Z,78.67
2023-03-26T18:43:43.724Z,81.17
2023-03-26T18:47:36.909Z,81.30
2023-03-26T18:51:43.258Z,76.02
2023-03-26T18:55:36.808Z,75.91
2023-03-26T18:59:35.771Z,73.26
2023-03-26T19:03:36.829Z,73.30
2023-03-26T19:07:35.689Z,73.50
2023-03-26T19:11:35.885Z,71.17
2023-03-26T19:15:35.858Z,62.26
2023-03-26T19:19:35.805Z,59.73
2023-03-26T19:23:35.762Z,68.11
2023-03-26T19:27:35.729Z,67.27
2023-03-26T19:31:35.713Z,64.41
2023-03-26T19:35:35.689Z,60.04
2023-03-26T19:39:37.470Z,64.09
2023-03-26T19:43:35.578Z,65.39
2023-03-26T19:47:48.381Z,60.77
2023-03-26T19:51:36.700Z,64.73
2023-03-26T19:55:35.661Z,62.58
2023-03-26T19:59:35.771Z,49.40
2023-03-26T20:03:35.999Z,48.55
2023-03-26T20:07:36.482Z,54.13
2023-03-26T20:11:36.242Z,53.61
2023-03-26T20:15:36.413Z,54.07
2023-03-26T20:19:36.578Z,37.39
2023-03-26T20:23:36.701Z,43.13
2023-03-26T20:27:36.853Z,41.65
2023-03-26T20:31:37.092Z,43.97
2023-03-26T20:35:37.231Z,43.41
2023-03-26T20:39:37.393Z,34.33
2023-03-26T20:43:37.586Z,28.06
2023-03-26T20:47:37.803Z,35.94
2023-03-26T20:51:37.945Z,27.77
2023-03-26T20:55:38.165Z,31.36
2023-03-26T20:59:38.440Z,30.62
2023-03-26T21:03:38.553Z,39.48
2023-03-26T21:07:38.729Z,29.98
2023-03-26T21:11:38.888Z,32.07
2023-03-26T21:15:39.084Z,31.46
2023-03-26T21:19:39.313Z,36.93
2023-03-26T21:23:39.470Z,38.60
2023-03-26T21:27:39.628Z,39.51
2023-03-26T21:31:39.876Z,40.15
2023-03-26T21:35:40.039Z,36.85
2023-03-26T21:39:40.142Z,37.16
2023-03-26T21:43:40.289Z,30.52
2023-03-26T21:47:40.493Z,28.29
2023-03-26T21:51:40.652Z,42.20
2023-03-26T21:55:40.787Z,35.92
2023-03-26T21:59:40.929Z,37.41
2023-03-26T22:03:41.072Z,43.62
2023-03-26T22:07:41.132Z,41.12
2023-03-26T22:11:41.204Z,31.86
2023-03-26T22:15:41.351Z,38.34
2023-03-26T22:19:41.439Z,30.31
2023-03-26T22:23:41.562Z,29.60
2023-03-26T22:27:44.470Z,32.41
2023-03-26T22:31:41.625Z,33.13
2023-03-26T22:35:41.619Z,28.91
2023-03-26T22:39:41.536Z,27.55
2023-03-26T22:43:41.498Z,25.26
2023-03-26T22:47:41.484Z,42.32
2023-03-26T22:51:41.423Z,39.56
2023-03-26T22:55:41.368Z,31.35
2023-03-26T22:59:41.333Z,30.02
2023-03-26T23:03:41.313Z,31.60
2023-03-26T23:07:41.269Z,48.38
2023-03-26T23:11:41.302Z,33.75
2023-03-26T23:15:41.245Z,36.18
2023-03-26T23:19:41.229Z,34.07
2023-03-26T23:23:41.191Z,42.21
2023-03-26T23:27:41.259Z,39.04
2023-03-26T23:31:41.164Z,34.11
2023-03-26T23:35:41.143Z,37.34
2023-03-26T23:39:41.052Z,32.92
2023-03-26T23:43:54.596Z,37.80
2023-03-26T23:47:42.413Z,29.40
2023-03-26T23:51:40.937Z,36.32
2023-03-26T23:55:41.015Z,35.18
2023-03-26T23:59:41.450Z,31.13
